createdAt,value
2023-05-07T00:00:48.172Z,19.30
2023-05-07T00:03:23.682Z,17.80
2023-05-07T00:05:53.932Z,21.25
2023-05-07T00:08:23.902Z,21.20
2023-05-07T00:10:52.577Z,21.15
2023-05-07T00:13:21.215Z,21.38
2023-05-07T00:15:49.990Z,20.55
2023-05-07T00:18:22.106Z,22.30
2023-05-07T00:20:50.889Z,24.55
2023-05-07T00:23:19.269Z,21.02
2023-05-07T00:25:49.309Z,20.08
2023-05-07T00:28:17.721Z,18.10
2023-05-07T00:30:46.649Z,19.10
2023-05-07T00:33:14.968Z,19.50
2023-05-07T00:35:44.463Z,17.42
2023-05-07T00:38:12.881Z,17.13
2023-05-07T00:40:41.537Z,15.85
2023-05-07T00:43:11.590Z,14.48
2023-05-07T00:45:41.032Z,15.38
2023-05-07T00:48:09.507Z,13.82
2023-05-07T00:50:38.433Z,16.30
2023-05-07T00:53:06.859Z,15.15
2023-05-07T00:55:37.192Z,15.55
2023-05-07T00:58:05.710Z,14.68
2023-05-07T01:00:37.241Z,17.02
2023-05-07T01:03:05.736Z,16.48
2023-05-07T01:05:34.946Z,14.43
2023-05-07T01:08:04.284Z,17.88
2023-05-07T01:10:32.935Z,17.13
2023-05-07T01:13:02.058Z,15.35
2023-05-07T01:15:30.789Z,17.48
2023-05-07T01:18:01.361Z,15.93
2023-05-07T01:20:30.458Z,15.07
2023-05-07T01:23:00.187Z,14.10
2023-05-07T01:25:28.821Z,13.05
2023-05-07T01:27:57.197Z,13.80
2023-05-07T01:30:26.005Z,10.88
2023-05-07T01:32:58.901Z,13.77
2023-05-07T01:35:31.477Z,13.70
2023-05-07T01:38:01.355Z,12.05
2023-05-07T01:40:30.167Z,13.32
2023-05-07T01:42:58.851Z,12.05
2023-05-07T01:45:28.041Z,11.20
2023-05-07T01:47:56.966Z,9.88
2023-05-07T01:50:25.882Z,8.60
2023-05-07T01:52:54.759Z,10.10
2023-05-07T01:55:24.690Z,10.93
2023-05-07T01:57:53.017Z,10.05
2023-05-07T02:00:22.566Z,10.60
2023-05-07T02:02:51.080Z,9.85
2023-05-07T02:05:20.959Z,8.63
2023-05-07T02:07:49.303Z,7.40
2023-05-07T02:10:17.836Z,8.85
2023-05-07T02:12:47.766Z,7.10
2023-05-07T02:15:16.490Z,6.85
2023-05-07T02:18:04.720Z,7.18
2023-05-07T02:20:33.351Z,9.48
2023-05-07T02:23:01.837Z,6.22
2023-05-07T02:25:31.293Z,6.65
2023-05-07T02:28:01.530Z,6.93
2023-05-07T02:30:30.637Z,7.05
2023-05-07T02:32:59.024Z,6.32
2023-05-07T02:35:27.836Z,8.23
2023-05-07T02:37:56.280Z,6.70
2023-05-07T02:40:25.913Z,5.10
2023-05-07T02:42:54.196Z,5.20
2023-05-07T02:45:24.477Z,4.47
2023-05-07T02:47:52.786Z,5.25
2023-05-07T02:50:21.408Z,4.07
2023-05-07T02:52:50.166Z,6.50
2023-05-07T02:55:18.842Z,3.63
2023-05-07T02:57:47.198Z,4.53
2023-05-07T03:00:17.553Z,5.35
2023-05-07T03:02:47.605Z,4.43
2023-05-07T03:05:16.376Z,3.33
2023-05-07T03:07:46.362Z,3.65
2023-05-07T03:10:15.264Z,3.70
2023-05-07T03:12:43.650Z,5.00
2023-05-07T03:15:13.749Z,3.45
2023-05-07T03:17:42.218Z,4.80
2023-05-07T03:20:14.711Z,3.70
2023-05-07T03:22:43.654Z,3.38
2023-05-07T03:25:13.514Z,4.70
2023-05-07T03:27:43.102Z,3.55
2023-05-07T03:30:13.162Z,5.78
2023-05-07T03:32:41.911Z,3.63
2023-05-07T03:35:12.347Z,3.47
2023-05-07T03:37:40.655Z,3.15
2023-05-07T03:40:12.244Z,3.65
2023-05-07T03:42:40.796Z,2.67
2023-05-07T03:45:10.989Z,3.20
2023-05-07T03:47:39.463Z,4.30
2023-05-07T03:50:08.888Z,3.28
2023-05-07T03:52:38.762Z,4.32
2023-05-07T03:55:08.323Z,3.72
2023-05-07T03:57:36.437Z,4.50
2023-05-07T04:00:06.950Z,3.80
2023-05-07T04:02:35.559Z,2.88
2023-05-07T04:05:04.667Z,4.95
2023-05-07T04:07:33.233Z,3.35
2023-05-07T04:10:03.392Z,3.17
2023-05-07T04:12:32.152Z,2.75
2023-05-07T04:15:00.700Z,4.03
2023-05-07T04:17:29.208Z,2.75
2023-05-07T04:19:57.830Z,3.72
2023-05-07T04:22:26.096Z,2.72
2023-05-07T04:24:54.788Z,4.00
2023-05-07T04:27:24.520Z,3.90
2023-05-07T04:29:56.992Z,3.97
2023-05-07T04:32:26.079Z,4.93
2023-05-07T04:34:55.028Z,3.90
2023-05-07T04:37:23.352Z,4.30
2023-05-07T04:39:51.965Z,4.25
2023-05-07T04:42:20.862Z,4.45
2023-05-07T04:44:54.968Z,3.38
2023-05-07T04:47:23.366Z,3.60
2023-05-07T04:49:52.001Z,4.30
2023-05-07T04:52:21.611Z,3.50
2023-05-07T04:54:50.300Z,3.92
2023-05-07T04:57:19.114Z,4.72
2023-05-07T04:59:47.909Z,4.53
2023-05-07T05:02:20.152Z,3.47
2023-05-07T05:04:49.530Z,4.80
2023-05-07T05:07:17.758Z,5.05
2023-05-07T05:09:46.463Z,4.85
2023-05-07T05:12:14.714Z,4.60
2023-05-07T05:14:44.061Z,3.75
2023-05-07T05:17:12.484Z,4.68
2023-05-07T05:19:42.565Z,3.75
2023-05-07T05:22:11.112Z,4.00
2023-05-07T05:24:39.723Z,3.30
2023-05-07T05:27:07.956Z,3.03
2023-05-07T05:29:36.780Z,3.38
2023-05-07T05:32:05.238Z,2.80
2023-05-07T05:34:34.855Z,3.03
2023-05-07T05:37:04.553Z,3.38
2023-05-07T05:39:33.139Z,3.50
2023-05-07T05:42:01.509Z,2.83
2023-05-07T05:44:30.110Z,3.38
2023-05-07T05:47:00.461Z,4.25
2023-05-07T05:49:29.138Z,2.53
2023-05-07T05:51:57.784Z,3.80
2023-05-07T05:54:27.936Z,3.30
2023-05-07T05:56:56.575Z,2.00
2023-05-07T05:59:25.814Z,3.30
2023-05-07T06:01:54.189Z,2.97
2023-05-07T06:04:22.748Z,3.30
2023-05-07T06:06:51.372Z,2.80
2023-05-07T06:09:20.156Z,2.80
2023-05-07T06:11:49.967Z,3.85
2023-05-07T06:14:18.785Z,3.13
2023-05-07T06:16:47.298Z,2.20
2023-05-07T06:19:16.255Z,3.05
2023-05-07T06:21:44.576Z,2.45
2023-05-07T06:24:13.197Z,2.45
2023-05-07T06:26:41.581Z,3.20
2023-05-07T06:29:11.638Z,2.92
2023-05-07T06:31:40.422Z,3.13
2023-05-07T06:34:09.570Z,2.50
2023-05-07T06:36:37.846Z,4.93
2023-05-07T06:39:06.451Z,2.58
2023-05-07T06:41:35.550Z,3.08
2023-05-07T06:44:04.099Z,3.45
2023-05-07T06:46:33.766Z,3.08
2023-05-07T06:49:02.470Z,2.72
2023-05-07T06:51:31.315Z,4.20
2023-05-07T06:53:59.908Z,3.10
2023-05-07T06:56:31.311Z,3.30
2023-05-07T06:58:59.915Z,4.07
2023-05-07T07:01:28.578Z,3.53
2023-05-07T07:03:58.648Z,2.75
2023-05-07T07:06:27.141Z,2.72
2023-05-07T07:08:55.917Z,3.67
2023-05-07T07:11:24.133Z,3.38
2023-05-07T07:13:52.886Z,3.03
2023-05-07T07:16:26.479Z,4.45
2023-05-07T07:18:55.336Z,2.55
2023-05-07T07:21:25.394Z,3.67
2023-05-07T07:23:54.125Z,2.85
2023-05-07T07:26:22.892Z,3.03
2023-05-07T07:28:51.604Z,3.83
2023-05-07T07:31:20.035Z,3.67
2023-05-07T07:33:49.372Z,3.33
2023-05-07T07:36:18.713Z,3.22
2023-05-07T07:38:48.956Z,3.03
2023-05-07T07:41:17.469Z,3.97
2023-05-07T07:43:49.154Z,9.82
2023-05-07T07:46:18.262Z,40.25
2023-05-07T07:48:47.326Z,14.68
2023-05-07T07:51:15.985Z,3.63
2023-05-07T07:53:44.634Z,16.58
2023-05-07T07:56:14.846Z,3.75
2023-05-07T07:58:43.379Z,3.17
2023-05-07T08:01:13.458Z,7.32
2023-05-07T08:03:42.257Z,3.38
2023-05-07T08:06:10.750Z,2.47
2023-05-07T08:08:39.755Z,1.95
2023-05-07T08:11:08.058Z,3.00
2023-05-07T08:13:38.261Z,2.88
2023-05-07T08:16:06.845Z,4.15
2023-05-07T08:18:35.783Z,5.18
2023-05-07T08:21:04.391Z,4.68
2023-05-07T08:23:33.062Z,4.15
2023-05-07T08:26:01.694Z,6.45
2023-05-07T08:28:30.514Z,2.67
2023-05-07T08:31:01.644Z,2.63
2023-05-07T08:33:30.537Z,3.47
2023-05-07T08:35:59.342Z,2.70
2023-05-07T08:38:28.311Z,2.60
2023-05-07T08:40:56.682Z,2.25
2023-05-07T08:43:29.254Z,2.67
2023-05-07T08:45:59.394Z,5.40
2023-05-07T08:48:28.152Z,2.55
2023-05-07T08:50:56.818Z,3.63
2023-05-07T08:53:25.333Z,3.25
2023-05-07T08:55:54.001Z,2.30
2023-05-07T08:58:22.505Z,5.63
2023-05-07T09:00:50.838Z,4.50
2023-05-07T09:03:21.028Z,3.30
2023-05-07T09:05:49.444Z,3.50
2023-05-07T09:08:18.391Z,14.35
2023-05-07T09:10:47.112Z,11.30
2023-05-07T09:13:16.137Z,7.82
2023-05-07T09:15:46.085Z,10.20
2023-05-07T09:18:16.639Z,7.60
2023-05-07T09:20:50.477Z,8.07
2023-05-07T09:23:19.715Z,7.10
2023-05-07T09:25:48.885Z,4.82
2023-05-07T09:28:17.662Z,4.75
2023-05-07T09:30:45.990Z,6.88
2023-05-07T09:33:14.619Z,6.35
2023-05-07T09:35:43.322Z,7.50
2023-05-07T09:38:13.229Z,5.20
2023-05-07T09:40:42.047Z,6.38
2023-05-07T09:43:15.819Z,6.00
2023-05-07T09:45:44.334Z,4.88
2023-05-07T09:48:13.448Z,5.15
2023-05-07T09:50:50.741Z,4.05
2023-05-07T09:53:21.034Z,4.85
2023-05-07T09:55:49.662Z,4.93
2023-05-07T09:58:20.456Z,5.10
2023-05-07T10:00:49.105Z,5.33
2023-05-07T10:03:18.465Z,7.50
2023-05-07T10:05:48.617Z,7.03
2023-05-07T10:08:21.127Z,6.95
2023-05-07T10:10:51.799Z,4.82
2023-05-07T10:13:21.636Z,3.60
2023-05-07T10:15:50.520Z,4.05
2023-05-07T10:18:19.294Z,5.40
2023-05-07T10:20:48.417Z,5.05
2023-05-07T10:23:22.090Z,6.60
2023-05-07T10:25:55.434Z,6.45
2023-05-07T10:28:29.406Z,7.47
2023-05-07T10:31:10.554Z,8.27
2023-05-07T10:33:40.355Z,5.60
2023-05-07T10:36:09.359Z,7.93
2023-05-07T10:38:37.923Z,7.10
2023-05-07T10:41:07.702Z,6.65
2023-05-07T10:43:42.396Z,6.60
2023-05-07T10:46:18.668Z,7.43
2023-05-07T10:49:09.850Z,7.78
2023-05-07T10:51:39.844Z,6.47
2023-05-07T10:54:24.013Z,8.07
2023-05-07T10:56:54.034Z,7.50
2023-05-07T10:59:35.201Z,6.45
2023-05-07T11:02:05.623Z,6.10
2023-05-07T11:04:36.335Z,6.65
2023-05-07T11:07:32.239Z,7.40
2023-05-07T11:10:09.023Z,5.38
2023-05-07T11:13:06.320Z,5.70
2023-05-07T11:15:44.553Z,4.35
2023-05-07T11:18:17.415Z,3.70
2023-05-07T11:20:57.111Z,16.60
2023-05-07T11:24:11.505Z,6.28
2023-05-07T11:26:48.213Z,4.78
2023-05-07T11:29:21.893Z,4.60
2023-05-07T11:31:52.516Z,5.82
2023-05-07T11:34:25.004Z,5.00
2023-05-07T11:36:54.218Z,5.93
2023-05-07T11:39:29.866Z,5.60
2023-05-07T11:42:00.915Z,6.38
2023-05-07T11:44:44.562Z,7.75
2023-05-07T11:47:13.397Z,6.88
2023-05-07T11:49:41.794Z,8.27
2023-05-07T11:52:10.862Z,6.18
2023-05-07T11:54:39.455Z,7.63
2023-05-07T11:57:08.543Z,7.55
2023-05-07T11:59:42.496Z,6.88
2023-05-07T12:02:12.654Z,7.03
2023-05-07T12:04:41.329Z,9.45
2023-05-07T12:07:15.166Z,10.95
2023-05-07T12:09:43.980Z,9.52
2023-05-07T12:12:12.677Z,6.30
2023-05-07T12:14:41.606Z,8.73
2023-05-07T12:17:10.904Z,7.32
2023-05-07T12:19:42.027Z,8.35
2023-05-07T12:22:11.418Z,5.20
2023-05-07T12:24:47.541Z,5.32
2023-05-07T12:27:16.945Z,7.88
2023-05-07T12:29:47.383Z,4.18
2023-05-07T12:32:17.471Z,7.43
2023-05-07T12:34:47.760Z,7.10
2023-05-07T12:37:16.490Z,9.63
2023-05-07T12:39:50.202Z,9.95
2023-05-07T12:42:19.551Z,12.88
2023-05-07T12:44:48.657Z,7.22
2023-05-07T12:47:17.664Z,7.60
2023-05-07T12:49:48.268Z,5.82
2023-05-07T12:52:16.879Z,5.55
2023-05-07T12:54:46.632Z,7.28
2023-05-07T12:57:15.292Z,6.55
2023-05-07T12:59:43.899Z,5.93
2023-05-07T13:02:12.674Z,8.38
2023-05-07T13:04:40.934Z,5.82
2023-05-07T13:07:11.090Z,6.70
2023-05-07T13:09:39.463Z,8.25
2023-05-07T13:12:08.282Z,4.63
2023-05-07T13:14:36.508Z,6.80
2023-05-07T13:17:05.026Z,4.93
2023-05-07T13:19:33.295Z,5.90
2023-05-07T13:22:01.758Z,5.43
2023-05-07T13:24:31.482Z,5.30
2023-05-07T13:26:59.972Z,6.03
2023-05-07T13:29:31.115Z,6.70
2023-05-07T13:31:59.821Z,6.50
2023-05-07T13:34:28.085Z,6.85
2023-05-07T13:36:56.654Z,24.10
2023-05-07T13:39:25.029Z,21.50
2023-05-07T13:41:54.893Z,10.65
2023-05-07T13:44:23.093Z,10.20
2023-05-07T13:46:52.450Z,6.68
2023-05-07T13:49:20.716Z,17.88
2023-05-07T13:51:49.457Z,7.45
2023-05-07T13:54:18.013Z,11.15
2023-05-07T13:56:46.618Z,8.70
2023-05-07T13:59:16.629Z,10.38
2023-05-07T14:01:48.976Z,11.65
2023-05-07T14:04:17.671Z,13.80
2023-05-07T14:06:46.452Z,12.90
2023-05-07T14:09:14.687Z,13.38
2023-05-07T14:11:43.616Z,9.40
2023-05-07T14:14:12.905Z,7.40
2023-05-07T14:16:42.720Z,4.60
2023-05-07T14:19:11.166Z,7.00
2023-05-07T14:21:39.864Z,10.43
2023-05-07T14:24:09.101Z,8.25
2023-05-07T14:26:37.782Z,25.80
2023-05-07T14:29:06.173Z,28.75
2023-05-07T14:31:35.129Z,32.28
2023-05-07T14:34:05.419Z,20.55
2023-05-07T14:36:34.032Z,19.70
2023-05-07T14:39:02.441Z,15.35
2023-05-07T14:41:31.068Z,19.33
2023-05-07T14:44:00.044Z,30.00
2023-05-07T14:46:28.739Z,17.23
2023-05-07T14:48:57.092Z,6.18
2023-05-07T14:51:29.208Z,7.97
2023-05-07T14:53:57.772Z,8.35
2023-05-07T14:56:26.747Z,9.38
2023-05-07T14:58:55.129Z,6.75
2023-05-07T15:01:23.688Z,7.57
2023-05-07T15:03:52.147Z,10.00
2023-05-07T15:06:20.730Z,13.55
2023-05-07T15:08:50.717Z,10.45
2023-05-07T15:11:19.130Z,10.70
2023-05-07T15:13:47.507Z,18.67
2023-05-07T15:16:16.183Z,30.00
2023-05-07T15:18:44.979Z,18.65
2023-05-07T15:21:13.713Z,10.68
2023-05-07T15:23:42.429Z,17.55
2023-05-07T15:26:12.746Z,14.52
2023-05-07T15:28:41.438Z,10.30
2023-05-07T15:31:10.282Z,9.80
2023-05-07T15:33:38.588Z,12.63
2023-05-07T15:36:07.911Z,13.38
2023-05-07T15:38:36.388Z,17.75
2023-05-07T15:41:05.340Z,15.68
2023-05-07T15:43:35.056Z,22.95
2023-05-07T15:46:03.578Z,26.25
2023-05-07T15:48:31.926Z,22.08
2023-05-07T15:51:01.028Z,11.43
2023-05-07T15:53:29.655Z,13.65
2023-05-07T15:55:58.172Z,18.20
2023-05-07T15:58:26.590Z,12.40
2023-05-07T16:00:56.578Z,9.73
2023-05-07T16:03:25.094Z,8.82
2023-05-07T16:05:54.164Z,8.80
2023-05-07T16:08:22.972Z,8.23
2023-05-07T16:10:52.465Z,9.25
2023-05-07T16:13:21.099Z,11.35
2023-05-07T16:15:49.783Z,8.65
2023-05-07T16:18:22.261Z,9.80
2023-05-07T16:20:51.160Z,9.95
2023-05-07T16:23:19.473Z,20.88
2023-05-07T16:25:48.974Z,13.38
2023-05-07T16:28:17.324Z,30.77
2023-05-07T16:30:45.893Z,22.73
2023-05-07T16:33:14.323Z,19.38
2023-05-07T16:35:47.650Z,12.35
2023-05-07T16:38:16.196Z,10.23
2023-05-07T16:40:44.661Z,12.20
2023-05-07T16:43:12.862Z,9.05
2023-05-07T16:45:41.562Z,10.63
2023-05-07T16:48:10.010Z,12.85
2023-05-07T16:50:38.772Z,14.25
2023-05-07T16:53:08.517Z,14.20
2023-05-07T16:55:39.032Z,12.40
2023-05-07T16:58:07.766Z,12.05
2023-05-07T17:00:48.955Z,13.25
2023-05-07T17:03:19.481Z,14.40
2023-05-07T17:05:48.006Z,11.93
2023-05-07T17:08:18.024Z,15.52
2023-05-07T17:10:46.563Z,13.68
2023-05-07T17:13:15.229Z,17.20
2023-05-07T17:15:45.200Z,15.18
2023-05-07T17:18:13.908Z,12.00
2023-05-07T17:20:42.196Z,16.20
2023-05-07T17:23:11.158Z,11.80
2023-05-07T17:25:45.563Z,10.57
2023-05-07T17:28:14.621Z,8.43
2023-05-07T17:30:43.213Z,16.17
2023-05-07T17:33:20.889Z,18.40
2023-05-07T17:35:50.226Z,12.88
2023-05-07T17:38:18.870Z,14.23
2023-05-07T17:40:48.769Z,10.85
2023-05-07T17:43:17.561Z,9.30
2023-05-07T17:45:45.959Z,7.72
2023-05-07T17:48:14.589Z,15.13
2023-05-07T17:50:46.588Z,10.02
2023-05-07T17:53:17.297Z,8.13
2023-05-07T17:55:46.510Z,11.55
2023-05-07T17:58:16.285Z,10.70
2023-05-07T18:00:44.602Z,9.32
2023-05-07T18:03:13.178Z,11.18
2023-05-07T18:05:41.880Z,11.57
2023-05-07T18:08:10.785Z,11.60
2023-05-07T18:10:39.048Z,12.93
2023-05-07T18:13:07.592Z,10.50
2023-05-07T18:15:37.504Z,13.95
2023-05-07T18:18:06.722Z,15.05
2023-05-07T18:20:34.887Z,11.35
2023-05-07T18:23:04.656Z,12.02
2023-05-07T18:25:32.989Z,11.52
2023-05-07T18:28:01.688Z,9.68
2023-05-07T18:30:29.988Z,10.93
2023-05-07T18:32:59.903Z,11.63
2023-05-07T18:35:28.296Z,9.93
2023-05-07T18:37:56.935Z,10.13
2023-05-07T18:40:25.302Z,12.00
2023-05-07T18:42:54.190Z,11.35
2023-05-07T18:45:24.798Z,11.25
2023-05-07T18:47:54.075Z,8.73
2023-05-07T18:50:24.704Z,14.50
2023-05-07T18:52:53.318Z,7.93
2023-05-07T18:55:22.607Z,9.18
2023-05-07T18:57:51.204Z,7.15
2023-05-07T19:00:19.556Z,9.18
2023-05-07T19:02:48.477Z,8.82
2023-05-07T19:05:18.484Z,10.98
2023-05-07T19:07:48.577Z,13.88
2023-05-07T19:10:17.470Z,10.20
2023-05-07T19:12:46.116Z,24.77
2023-05-07T19:15:14.454Z,24.77
2023-05-07T19:17:42.968Z,13.35
2023-05-07T19:20:12.514Z,11.73
2023-05-07T19:22:41.136Z,11.98
2023-05-07T19:25:11.729Z,11.05
2023-05-07T19:27:40.554Z,10.20
2023-05-07T19:30:10.845Z,9.80
2023-05-07T19:32:40.914Z,9.77
2023-05-07T19:35:09.781Z,12.10
2023-05-07T19:37:38.434Z,7.45
2023-05-07T19:40:08.914Z,8.25
2023-05-07T19:42:38.996Z,7.15
2023-05-07T19:45:08.488Z,9.23
2023-05-07T19:47:37.051Z,9.00
2023-05-07T19:50:05.691Z,8.40
2023-05-07T19:52:34.186Z,8.50
2023-05-07T19:55:03.329Z,8.80
2023-05-07T19:57:32.093Z,8.75
2023-05-07T20:00:01.999Z,8.52
2023-05-07T20:02:33.795Z,12.98
2023-05-07T20:05:02.307Z,9.48
2023-05-07T20:07:31.137Z,7.38
2023-05-07T20:09:59.364Z,8.07
2023-05-07T20:12:27.903Z,9.70
2023-05-07T20:14:56.287Z,9.63
2023-05-07T20:17:26.520Z,8.07
2023-05-07T20:19:55.703Z,12.30
2023-05-07T20:22:24.920Z,8.07
2023-05-07T20:24:53.325Z,8.23
2023-05-07T20:27:24.979Z,8.32
2023-05-07T20:29:53.981Z,9.27
2023-05-07T20:32:22.564Z,8.77
2023-05-07T20:34:52.263Z,8.23
2023-05-07T20:37:20.914Z,7.13
2023-05-07T20:39:49.579Z,8.98
2023-05-07T20:42:18.518Z,11.27
2023-05-07T20:44:46.785Z,10.15
2023-05-07T20:47:20.634Z,10.45
2023-05-07T20:49:53.708Z,11.00
2023-05-07T20:52:22.392Z,6.53
2023-05-07T20:54:50.897Z,5.32
2023-05-07T20:57:20.190Z,5.97
2023-05-07T20:59:51.671Z,5.55
2023-05-07T21:02:20.357Z,5.78
2023-05-07T21:04:51.453Z,4.35
2023-05-07T21:09:49.773Z,6.45
2023-05-07T21:12:18.452Z,7.18
2023-05-07T21:14:47.205Z,7.38
2023-05-07T21:17:15.776Z,6.25
2023-05-07T21:19:44.249Z,8.10
2023-05-07T21:22:13.152Z,7.05
2023-05-07T21:24:42.820Z,6.78
2023-05-07T21:27:11.367Z,10.45
2023-05-07T21:29:39.739Z,7.75
2023-05-07T21:32:08.294Z,7.78
2023-05-07T21:34:36.518Z,7.80
2023-05-07T21:37:05.214Z,7.32
2023-05-07T21:39:33.385Z,7.07
2023-05-07T21:42:03.533Z,6.47
2023-05-07T21:44:32.802Z,7.13
2023-05-07T21:47:01.632Z,5.70
2023-05-07T21:49:29.997Z,6.53
2023-05-07T21:51:59.959Z,6.32
2023-05-07T21:54:28.241Z,10.68
2023-05-07T21:56:56.848Z,6.13
2023-05-07T21:59:26.540Z,7.35
2023-05-07T22:01:55.458Z,5.68
2023-05-07T22:04:23.908Z,5.53
2023-05-07T22:06:52.791Z,5.68
2023-05-07T22:09:21.129Z,9.55
2023-05-07T22:11:49.613Z,7.35
2023-05-07T22:14:19.041Z,5.35
2023-05-07T22:16:50.262Z,6.63
2023-05-07T22:19:18.663Z,9.63
2023-05-07T22:21:47.338Z,7.55
2023-05-07T22:24:15.869Z,7.05
2023-05-07T22:26:45.222Z,9.07
2023-05-07T22:29:13.680Z,7.10
2023-05-07T22:31:42.305Z,6.55
2023-05-07T22:34:11.915Z,7.03
2023-05-07T22:36:40.257Z,5.65
2023-05-07T22:39:10.161Z,5.57
2023-05-07T22:41:38.603Z,6.47
2023-05-07T22:44:07.012Z,6.15
2023-05-07T22:46:35.542Z,7.25
2023-05-07T22:49:04.201Z,8.82
2023-05-07T22:51:34.160Z,6.90
2023-05-07T22:54:02.459Z,6.72
2023-05-07T22:56:30.986Z,4.75
2023-05-07T22:58:59.645Z,6.40
2023-05-07T23:01:28.132Z,6.93
2023-05-07T23:03:56.387Z,10.85
2023-05-07T23:06:25.092Z,5.43
2023-05-07T23:08:55.072Z,5.72
2023-05-07T23:11:23.801Z,5.53
2023-05-07T23:13:52.006Z,5.65
2023-05-07T23:16:20.916Z,7.93
2023-05-07T23:18:49.445Z,5.40
2023-05-07T23:21:17.992Z,6.93
2023-05-07T23:23:47.782Z,5.82
2023-05-07T23:26:17.698Z,6.38
2023-05-07T23:28:46.558Z,6.70
2023-05-07T23:31:15.508Z,7.22
2023-05-07T23:33:43.861Z,5.80
2023-05-07T23:36:12.284Z,6.82
2023-05-07T23:38:40.534Z,6.90
2023-05-07T23:41:09.047Z,7.55
2023-05-07T23:43:38.580Z,6.60
2023-05-07T23:46:07.505Z,6.13
2023-05-07T23:48:35.699Z,4.80
2023-05-07T23:51:04.256Z,6.45
2023-05-07T23:53:32.660Z,3.55
2023-05-07T23:56:01.379Z,4.25
2023-05-07T23:58:29.622Z,4.00
